createdAt,value
2023-05-01T12:16:31.004Z,18.87
2023-05-01T12:18:59.704Z,18.86
2023-05-01T12:21:28.341Z,18.88
2023-05-01T12:23:58.345Z,18.87
2023-05-01T12:26:26.524Z,18.86
2023-05-01T12:28:59.277Z,18.87
2023-05-01T12:31:28.806Z,18.84
2023-05-01T12:34:08.215Z,18.84
2023-05-01T12:36:37.796Z,18.85
2023-05-01T12:39:14.365Z,18.84
2023-05-01T12:41:45.544Z,18.85
2023-05-01T12:44:22.752Z,18.88
2023-05-01T12:47:06.208Z,18.90
2023-05-01T12:49:37.355Z,18.91
2023-05-01T12:52:07.870Z,18.90
2023-05-01T12:54:44.051Z,18.90
2023-05-01T12:57:17.942Z,18.91
2023-05-01T12:59:47.440Z,18.92
2023-05-01T13:02:18.451Z,18.93
2023-05-01T13:04:49.573Z,18.96
2023-05-01T13:07:19.617Z,18.96
2023-05-01T13:09:59.269Z,18.96
2023-05-01T13:12:28.771Z,18.99
2023-05-01T13:14:57.510Z,18.99
2023-05-01T13:17:27.069Z,19.01
2023-05-01T13:20:05.687Z,19.04
2023-05-01T13:22:36.657Z,19.05
2023-05-01T13:25:20.878Z,19.05
2023-05-01T13:27:51.371Z,19.04
2023-05-01T13:30:30.888Z,19.05
2023-05-01T13:32:59.521Z,19.06
2023-05-01T13:35:28.113Z,19.08
2023-05-01T13:37:56.532Z,19.10
2023-05-01T13:40:27.883Z,19.13
2023-05-01T13:42:56.150Z,19.12
2023-05-01T13:45:25.061Z,19.11
2023-05-01T13:47:53.431Z,19.11
2023-05-01T13:50:21.708Z,19.09
2023-05-01T13:52:50.214Z,19.06
2023-05-01T13:55:20.906Z,19.07
2023-05-01T13:57:49.610Z,19.10
2023-05-01T14:00:19.271Z,19.12
2023-05-01T14:02:49.585Z,19.13
2023-05-01T14:05:27.860Z,19.15
2023-05-01T14:07:59.749Z,19.17
2023-05-01T14:10:29.727Z,19.18
2023-05-01T14:12:59.279Z,19.19
2023-05-01T14:15:28.917Z,19.19
2023-05-01T14:17:59.102Z,19.18
2023-05-01T14:20:27.402Z,19.20
2023-05-01T14:22:55.568Z,19.20
2023-05-01T14:25:30.712Z,19.19
2023-05-01T14:28:01.569Z,19.18
2023-05-01T14:30:37.455Z,19.18
2023-05-01T14:33:08.355Z,19.20
2023-05-01T14:35:38.165Z,19.23
2023-05-01T14:38:17.791Z,19.24
2023-05-01T14:40:46.533Z,19.24
2023-05-01T14:43:19.357Z,19.24
2023-05-01T14:45:49.799Z,19.23
2023-05-01T14:48:34.723Z,19.23
2023-05-01T14:51:11.807Z,19.22
2023-05-01T14:53:43.910Z,19.24
2023-05-01T14:56:12.810Z,19.25
2023-05-01T14:58:41.771Z,19.25
2023-05-01T15:01:10.474Z,19.25
2023-05-01T15:03:41.201Z,19.24
2023-05-01T15:06:10.300Z,19.25
2023-05-01T15:08:38.881Z,19.24
2023-05-01T15:11:07.788Z,19.24
2023-05-01T15:13:36.559Z,19.25
2023-05-01T15:16:05.765Z,19.25
2023-05-01T15:18:35.374Z,19.26
2023-05-01T15:21:04.262Z,19.25
2023-05-01T15:23:32.834Z,19.25
2023-05-01T15:26:01.640Z,19.26
2023-05-01T15:28:30.290Z,19.25
2023-05-01T15:30:59.005Z,19.25
2023-05-01T15:33:27.492Z,19.24
2023-05-01T15:35:55.730Z,19.23
2023-05-01T15:38:24.347Z,19.23
2023-05-01T15:40:52.624Z,19.24
2023-05-01T15:43:22.456Z,19.24
2023-05-01T15:45:51.588Z,19.22
2023-05-01T15:48:19.921Z,19.22
2023-05-01T15:50:49.182Z,19.21
2023-05-01T16:04:21.986Z,19.21
2023-05-01T16:06:50.437Z,19.19
2023-05-01T16:09:19.247Z,19.19
2023-05-01T16:11:47.499Z,19.17
2023-05-01T16:14:15.713Z,19.15
2023-05-01T16:16:44.021Z,19.12
2023-05-01T16:19:16.759Z,19.10
2023-05-01T16:21:45.317Z,19.07
2023-05-01T16:24:13.832Z,19.04
2023-05-01T16:26:42.109Z,19.02
2023-05-01T16:29:10.882Z,18.99
2023-05-01T16:31:47.074Z,18.96
2023-05-01T16:34:20.055Z,18.93
2023-05-01T16:36:48.163Z,18.90
2023-05-01T16:39:19.239Z,18.87
2023-05-01T16:41:50.290Z,18.83
2023-05-01T16:44:20.529Z,18.79
2023-05-01T16:46:57.800Z,18.76
2023-05-01T16:49:27.704Z,18.72
2023-05-01T16:51:59.465Z,18.69
2023-05-01T16:54:36.360Z,18.66
2023-05-01T16:57:05.040Z,18.62
2023-05-01T16:59:34.397Z,18.58
2023-05-01T17:02:02.864Z,18.54
2023-05-01T17:04:31.292Z,18.50
2023-05-01T17:06:59.773Z,18.45
2023-05-01T17:09:28.099Z,18.41
2023-05-01T17:11:57.560Z,18.36
2023-05-01T17:14:28.973Z,18.31
2023-05-01T17:17:00.358Z,18.26
2023-05-01T17:19:28.871Z,18.21
2023-05-01T17:21:58.270Z,18.17
2023-05-01T17:24:27.675Z,18.11
2023-05-01T17:26:57.211Z,18.06
2023-05-01T17:29:28.034Z,18.01
2023-05-01T17:31:56.356Z,17.96
2023-05-01T17:34:24.875Z,17.90
2023-05-01T17:36:56.563Z,17.84
2023-05-01T17:39:27.779Z,17.78
2023-05-01T17:41:56.057Z,17.73
2023-05-01T17:44:24.233Z,17.68
2023-05-01T17:46:52.510Z,17.63
2023-05-01T17:49:20.785Z,17.57
2023-05-01T17:51:49.013Z,17.52
2023-05-01T17:54:17.653Z,17.47
2023-05-01T17:56:45.831Z,17.43
2023-05-01T17:59:14.441Z,17.37
2023-05-01T18:01:42.741Z,17.31
2023-05-01T18:04:11.513Z,17.26
2023-05-01T18:06:41.826Z,17.21
2023-05-01T18:09:10.934Z,17.16
2023-05-01T18:11:39.097Z,17.11
2023-05-01T18:14:07.454Z,17.06
2023-05-01T18:16:35.771Z,17.00
2023-05-01T18:19:04.399Z,16.95
2023-05-01T18:21:33.105Z,16.89
2023-05-01T18:24:03.292Z,16.84
2023-05-01T18:26:33.041Z,16.79
2023-05-01T18:29:02.527Z,16.74
2023-05-01T18:31:30.746Z,16.70
2023-05-01T18:33:58.953Z,16.66
2023-05-01T18:36:27.445Z,16.61
2023-05-01T18:38:56.371Z,16.57
2023-05-01T18:41:25.763Z,16.52
2023-05-01T18:43:57.123Z,16.47
2023-05-01T18:46:26.236Z,16.42
2023-05-01T18:48:54.663Z,16.37
2023-05-01T18:51:22.819Z,16.33
2023-05-01T18:53:50.993Z,16.27
2023-05-01T18:56:19.148Z,16.22
2023-05-01T18:58:47.266Z,16.17
2023-05-01T19:01:15.508Z,16.13
2023-05-01T19:03:43.962Z,16.09
2023-05-01T19:06:12.260Z,16.02
2023-05-01T19:08:40.856Z,15.97
2023-05-01T19:11:09.033Z,15.91
2023-05-01T19:13:37.789Z,15.84
2023-05-01T19:16:06.166Z,15.78
2023-05-01T19:18:36.798Z,15.71
2023-05-01T19:21:05.577Z,15.64
2023-05-01T19:23:35.619Z,15.58
2023-05-01T19:26:06.232Z,15.52
2023-05-01T19:28:35.246Z,15.44
2023-05-01T19:31:03.813Z,15.37
2023-05-01T19:33:32.158Z,15.32
2023-05-01T19:36:00.510Z,15.26
2023-05-01T19:38:29.577Z,15.22
2023-05-01T19:40:57.876Z,15.16
2023-05-01T19:43:26.121Z,15.09
2023-05-01T19:45:54.257Z,15.03
2023-05-01T19:48:22.777Z,14.98
2023-05-01T19:50:51.872Z,14.92
2023-05-01T19:53:21.294Z,14.83
2023-05-01T19:55:50.581Z,14.75
2023-05-01T19:58:18.849Z,14.69
2023-05-01T20:00:47.052Z,14.63
2023-05-01T20:03:16.294Z,14.58
2023-05-01T20:05:44.660Z,14.52
2023-05-01T20:08:13.033Z,14.45
2023-05-01T20:10:42.000Z,14.39
2023-05-01T20:13:10.955Z,14.35
2023-05-01T20:15:39.894Z,14.34
2023-05-01T20:18:08.266Z,14.32
2023-05-01T20:20:36.428Z,14.27
2023-05-01T20:23:15.711Z,14.22
2023-05-01T20:25:45.385Z,14.19
2023-05-01T20:28:15.018Z,14.14
2023-05-01T20:30:46.076Z,14.11
2023-05-01T20:33:14.399Z,14.07
2023-05-01T20:35:42.736Z,14.02
2023-05-01T20:38:11.248Z,13.97
2023-05-01T20:40:40.881Z,13.92
2023-05-01T20:43:09.388Z,13.90
2023-05-01T20:45:37.675Z,13.86
2023-05-01T20:48:06.132Z,13.83
2023-05-01T20:50:35.546Z,13.79
2023-05-01T20:53:04.223Z,13.75
2023-05-01T20:55:32.395Z,13.68
2023-05-01T20:58:00.613Z,13.63
2023-05-01T21:00:28.759Z,13.58
2023-05-01T21:02:59.014Z,13.56
2023-05-01T21:05:27.898Z,13.53
2023-05-01T21:07:58.279Z,13.50
2023-05-01T21:10:26.410Z,13.45
2023-05-01T21:12:57.925Z,13.41
2023-05-01T21:15:27.685Z,13.35
2023-05-01T21:17:55.930Z,13.28
2023-05-01T21:20:35.551Z,13.23
2023-05-01T21:23:04.657Z,13.19
2023-05-01T21:25:33.226Z,13.15
2023-05-01T21:28:03.652Z,13.12
2023-05-01T21:30:36.773Z,13.08
2023-05-01T21:33:06.668Z,13.04
2023-05-01T21:35:34.894Z,12.97
2023-05-01T21:38:04.247Z,12.95
2023-05-01T21:40:39.881Z,12.92
2023-05-01T21:43:09.025Z,12.86
2023-05-01T21:45:42.622Z,12.81
2023-05-01T21:48:15.035Z,12.78
2023-05-01T21:50:43.367Z,12.76
2023-05-01T21:53:11.516Z,12.73
2023-05-01T21:55:39.717Z,12.71
2023-05-01T21:58:07.956Z,12.65
2023-05-01T22:00:37.660Z,12.60
2023-05-01T22:03:07.317Z,12.55
2023-05-01T22:05:35.571Z,12.52
2023-05-01T22:08:03.846Z,12.49
2023-05-01T22:10:32.184Z,12.46
2023-05-01T22:13:00.373Z,12.42
2023-05-01T22:15:28.620Z,12.38
2023-05-01T22:17:56.904Z,12.34
2023-05-01T22:20:25.202Z,12.32
2023-05-01T22:22:53.425Z,12.26
2023-05-01T22:25:21.785Z,12.24
2023-05-01T22:27:49.943Z,12.20
2023-05-01T22:30:18.540Z,12.12
2023-05-01T22:32:46.718Z,12.08
2023-05-01T22:35:15.048Z,12.06
2023-05-01T22:37:43.192Z,12.03
2023-05-01T22:40:11.895Z,11.99
2023-05-01T22:42:40.068Z,11.94
2023-05-01T22:45:10.555Z,11.88
2023-05-01T22:47:38.984Z,11.80
2023-05-01T22:50:07.709Z,11.74
2023-05-01T22:52:36.528Z,11.68
2023-05-01T22:55:05.561Z,11.62
2023-05-01T22:57:33.745Z,11.60
2023-05-01T23:00:02.152Z,11.59
2023-05-01T23:02:30.853Z,11.56
2023-05-01T23:04:59.243Z,11.54
2023-05-01T23:07:27.393Z,11.53
2023-05-01T23:09:56.438Z,11.52
2023-05-01T23:12:25.843Z,11.50
2023-05-01T23:14:55.434Z,11.51
2023-05-01T23:17:25.692Z,11.49
2023-05-01T23:19:54.806Z,11.47
2023-05-01T23:22:23.499Z,11.43
2023-05-01T23:24:51.709Z,11.40
2023-05-01T23:27:22.314Z,11.36
2023-05-01T23:29:59.028Z,11.33
2023-05-01T23:32:31.969Z,11.31
2023-05-01T23:35:11.667Z,11.28
2023-05-01T23:37:39.803Z,11.25
2023-05-01T23:40:09.570Z,11.20
2023-05-01T23:42:39.372Z,11.16
2023-05-01T23:45:09.543Z,11.14
2023-05-01T23:47:39.043Z,11.12
2023-05-01T23:50:08.045Z,11.10
2023-05-01T23:52:36.317Z,11.07
2023-05-01T23:55:04.920Z,11.02
2023-05-01T23:57:33.067Z,10.98
